Time;durP1;ratioP1;P1;durP2;ratioP2;P2;SDS_P1;SDS_P2;PMS_P1;PMS_P2;Temp;Humidity;BMP_temperature;BMP_pressure;BME280_temperature;BME280_humidity;BME280_pressure;Samples;Min_cycle;Max_cycle;Signal;HPM_P1;HPM_P2
2020/12/07 00:03:19;;;;;;;16.88;6.93;;;;;;;-5.60;50.40;101634.81;10502841;28;20070;-53
2020/12/07 00:08:21;;;;;;;15.97;4.30;;;;;;;-5.65;50.86;101636.47;10502589;28;20044;-49
2020/12/07 00:13:22;;;;;;;19.73;6.47;;;;;;;-5.67;50.66;101633.00;10502180;28;20084;-53
2020/12/07 00:18:25;;;;;;;11.05;4.38;;;;;;;-5.68;50.58;101636.41;10501250;28;20077;-53
2020/12/07 00:23:27;;;;;;;12.00;4.00;;;;;;;-5.72;50.94;101628.69;10501752;28;20067;-52
2020/12/07 00:28:28;;;;;;;16.25;5.32;;;;;;;-5.73;50.96;101622.69;10501729;28;20048;-49
2020/12/07 00:33:31;;;;;;;20.10;6.35;;;;;;;-5.74;51.02;101618.41;10500595;28;20044;-53
2020/12/07 00:38:33;;;;;;;12.27;6.03;;;;;;;-5.72;50.97;101618.44;10501859;28;20052;-53
2020/12/07 00:43:34;;;;;;;9.27;4.28;;;;;;;-5.77;51.37;101620.94;10499541;28;20045;-50
2020/12/07 00:48:37;;;;;;;21.88;7.32;;;;;;;-5.77;51.20;101626.06;10499433;28;20396;-50
2020/12/07 00:53:38;;;;;;;10.60;4.33;;;;;;;-5.80;51.43;101621.75;10499912;28;20473;-51
2020/12/07 00:58:40;;;;;;;10.13;4.75;;;;;;;-5.87;51.61;101625.09;10501654;28;20076;-51
2020/12/07 01:03:43;;;;;;;14.07;5.90;;;;;;;-5.90;51.43;101619.06;10498703;28;20053;-50
2020/12/07 01:08:45;;;;;;;14.90;6.97;;;;;;;-5.91;51.66;101620.78;10499014;28;20056;-51
2020/12/07 01:13:47;;;;;;;17.57;6.23;;;;;;;-5.89;51.61;101610.53;10498535;28;20064;-50
2020/12/07 01:18:52;;;;;;;9.77;5.45;;;;;;;-5.92;51.46;101615.63;10498579;28;20048;-51
2020/12/07 01:23:54;;;;;;;16.67;6.80;;;;;;;-5.92;51.67;101616.47;10497921;28;20577;-50
2020/12/07 01:28:57;;;;;;;12.60;4.83;;;;;;;-5.97;51.81;101618.16;10497537;28;20045;-50
2020/12/07 01:34:00;;;;;;;16.85;4.95;;;;;;;-6.04;52.16;101624.03;10498007;28;20045;-50
2020/12/07 01:39:02;;;;;;;6.35;2.97;;;;;;;-6.06;52.14;101623.16;10498618;28;20076;-50
2020/12/07 01:44:06;;;;;;;14.60;5.75;;;;;;;-6.12;52.32;101618.81;10497257;28;20044;-50
2020/12/07 01:49:11;;;;;;;13.32;5.55;;;;;;;-6.15;52.57;101621.34;10496805;28;20068;-52
2020/12/07 01:54:13;;;;;;;8.30;4.25;;;;;;;-6.16;52.82;101616.19;10497920;28;20060;-51
2020/12/07 01:59:18;;;;;;;19.80;7.88;;;;;;;-6.12;52.10;101625.66;10498394;28;20052;-51
2020/12/07 02:04:21;;;;;;;16.70;6.45;;;;;;;-6.04;52.11;101626.59;10497643;28;20040;-53
2020/12/07 02:09:26;;;;;;;21.23;9.07;;;;;;;-5.98;51.62;101610.44;10498129;28;20067;-50
2020/12/07 02:14:29;;;;;;;16.60;5.93;;;;;;;-5.90;51.22;101614.81;10497164;28;20052;-49
2020/12/07 02:19:33;;;;;;;21.70;7.60;;;;;;;-5.91;50.87;101622.44;10499894;28;20056;-50
2020/12/07 02:24:36;;;;;;;23.30;6.68;;;;;;;-5.89;50.81;101631.03;10506169;28;20044;-49
2020/12/07 02:29:46;;;;;;;13.52;5.65;;;;;;;-5.95;51.12;101633.53;10505489;28;20564;-53
2020/12/07 02:34:48;;;;;;;17.20;7.25;;;;;;;-6.03;51.38;101624.06;10504981;28;20044;-49
2020/12/07 02:39:54;;;;;;;22.02;6.85;;;;;;;-6.13;51.84;101622.19;10505866;28;20143;-51
2020/12/07 02:44:57;;;;;;;13.18;5.43;;;;;;;-6.21;52.08;101630.63;10504978;28;20041;-50
2020/12/07 02:50:03;;;;;;;13.02;5.35;;;;;;;-6.28;52.24;101633.09;10504815;28;20063;-50
2020/12/07 02:55:07;;;;;;;23.33;5.60;;;;;;;-6.34;52.67;101640.69;10503237;28;20067;-49
2020/12/07 03:00:10;;;;;;;13.82;4.70;;;;;;;-6.39;52.64;101633.78;10504215;28;20078;-51
2020/12/07 03:05:13;;;;;;;13.90;5.00;;;;;;;-6.40;52.82;101642.28;10503608;28;20106;-50
2020/12/07 03:10:17;;;;;;;14.02;5.20;;;;;;;-6.43;53.08;101643.09;10504212;28;20491;-50
2020/12/07 03:15:21;;;;;;;18.58;5.43;;;;;;;-6.46;53.13;101647.28;10503777;28;20167;-51
2020/12/07 03:20:23;;;;;;;12.88;5.13;;;;;;;-6.51;53.43;101639.56;10503896;28;20102;-53
2020/12/07 03:25:30;;;;;;;17.27;6.18;;;;;;;-6.51;53.28;101635.31;10503503;28;20056;-51
2020/12/07 03:30:32;;;;;;;13.07;4.88;;;;;;;-6.51;53.07;101645.53;10504286;28;20139;-53
2020/12/07 03:35:35;;;;;;;13.95;4.47;;;;;;;-6.51;53.11;101635.31;10504087;28;20473;-50
2020/12/07 03:40:40;;;;;;;15.93;5.10;;;;;;;-6.55;53.31;101643.78;10503997;28;20113;-51
2020/12/07 03:45:51;;;;;;;26.38;7.85;;;;;;;-6.55;53.21;101643.78;10502791;28;20044;-50
2020/12/07 03:50:54;;;;;;;16.67;5.07;;;;;;;-6.51;52.99;101642.97;10501484;28;20435;-50
2020/12/07 03:55:58;;;;;;;23.75;6.30;;;;;;;-6.46;52.87;101648.19;10502590;28;20067;-52
2020/12/07 04:01:03;;;;;;;14.40;6.15;;;;;;;-6.48;53.01;101649.84;10502789;28;20044;-50
2020/12/07 04:06:09;;;;;;;8.63;4.22;;;;;;;-6.53;53.22;101641.22;10501896;28;20106;-54
2020/12/07 04:11:11;;;;;;;29.63;7.78;;;;;;;-6.61;53.62;101636.00;10501718;28;20040;-51
2020/12/07 04:16:13;;;;;;;14.20;6.33;;;;;;;-6.65;53.71;101635.91;10502070;28;20063;-53
2020/12/07 04:21:15;;;;;;;11.73;3.55;;;;;;;-6.68;53.79;101629.06;10502128;28;20049;-49
2020/12/07 04:26:17;;;;;;;13.73;4.70;;;;;;;-6.66;53.73;101629.09;10504831;28;20044;-53
2020/12/07 04:31:19;;;;;;;7.33;3.77;;;;;;;-6.68;53.51;101623.06;10502364;28;20143;-50
2020/12/07 04:36:20;;;;;;;24.38;6.82;;;;;;;-6.70;53.73;101633.28;10501372;28;20404;-50
2020/12/07 04:41:23;;;;;;;18.42;5.45;;;;;;;-6.70;53.60;101637.56;10502185;28;20168;-50
2020/12/07 04:46:25;;;;;;;7.57;4.53;;;;;;;-6.74;53.66;101647.75;10501716;28;20080;-50
2020/12/07 04:51:27;;;;;;;16.08;4.88;;;;;;;-6.73;53.44;101664.78;10501640;28;20090;-51
2020/12/07 04:56:33;;;;;;;16.40;6.32;;;;;;;-6.73;53.55;101661.38;10501248;28;20497;-51
2020/12/07 05:01:34;;;;;;;15.32;6.85;;;;;;;-6.73;53.56;101658.81;10502312;28;20068;-50
2020/12/07 05:06:36;;;;;;;19.40;6.97;;;;;;;-6.76;53.77;101663.88;10502213;28;20097;-51
2020/12/07 05:11:39;;;;;;;10.02;4.65;;;;;;;-6.77;53.28;101657.06;10499355;28;20048;-53
2020/12/07 05:16:40;;;;;;;19.60;7.83;;;;;;;-6.74;53.26;101665.63;10498901;28;20090;-50
2020/12/07 05:21:44;;;;;;;18.40;6.40;;;;;;;-6.75;53.23;101665.59;10498844;28;20040;-54
2020/12/07 05:26:47;;;;;;;20.15;8.48;;;;;;;-6.77;53.21;101657.91;10499270;28;20062;-51
2020/12/07 05:31:53;;;;;;;18.95;7.80;;;;;;;-6.76;53.39;101663.88;10498283;28;20095;-50
2020/12/07 05:36:55;;;;;;;14.57;5.72;;;;;;;-6.78;53.13;101661.28;10498363;28;20048;-51
2020/12/07 05:41:58;;;;;;;13.73;4.67;;;;;;;-6.83;53.58;101664.63;10498646;28;20048;-49
2020/12/07 05:47:01;;;;;;;20.40;6.63;;;;;;;-6.74;53.47;101667.34;10497884;28;20058;-50
2020/12/07 05:52:04;;;;;;;17.83;6.30;;;;;;;-6.38;53.78;101684.09;10498601;28;20098;-50
2020/12/07 05:57:17;;;;;;;13.82;6.32;;;;;;;-5.98;53.66;101692.41;10497817;28;20298;-49
2020/12/07 06:02:20;;;;;;;14.02;5.47;;;;;;;-5.48;53.91;101693.06;10498207;28;20054;-53
2020/12/07 06:07:28;;;;;;;20.00;7.03;;;;;;;-4.85;53.42;101693.75;10498181;28;20059;-51
2020/12/07 06:12:39;;;;;;;20.25;6.70;;;;;;;-4.17;52.29;101690.03;10497897;28;20055;-50
2020/12/07 06:17:48;;;;;;;17.02;7.53;;;;;;;-3.34;51.91;101690.50;10498275;28;20382;-51
2020/12/07 06:22:55;;;;;;;25.23;8.60;;;;;;;-2.58;50.74;101690.66;10498449;28;20040;-50
2020/12/07 06:28:04;;;;;;;24.83;9.68;;;;;;;-2.75;48.02;101696.66;10498017;28;20083;-55
2020/12/07 06:33:08;;;;;;;27.83;9.45;;;;;;;-3.62;47.56;101699.81;10498924;28;20049;-50
2020/12/07 06:38:09;;;;;;;;;;;;;;;-4.11;47.79;101694.38;10498032;28;20155;-51
2020/12/07 06:43:17;;;;;;;32.30;11.50;;;;;;;-4.28;48.06;101702.81;10500012;28;19931;-51
2020/12/07 06:48:21;;;;;;;26.17;9.57;;;;;;;-4.29;47.75;101707.91;10497346;28;20055;-50
2020/12/07 06:53:46;;;;;;;33.10;10.60;;;;;;;-4.36;47.95;101719.00;10497061;28;20444;-51
2020/12/07 06:58:49;;;;;;;27.77;11.75;;;;;;;-4.31;48.23;101723.34;10496899;28;20049;-51
2020/12/07 07:03:52;;;;;;;17.70;7.27;;;;;;;-4.25;47.85;101722.50;10496438;28;20048;-53
2020/12/07 07:08:59;;;;;;;26.00;10.65;;;;;;;-4.23;48.06;101723.38;10478717;28;20088;-50
2020/12/07 07:14:02;;;;;;;34.95;11.70;;;;;;;-4.25;48.27;101727.63;10482270;28;20049;-55
2020/12/07 07:19:04;;;;;;;23.42;8.73;;;;;;;-2.97;49.73;101729.22;10503587;28;20052;-50
2020/12/07 07:24:07;;;;;;;25.75;10.63;;;;;;;-0.31;49.70;101725.97;10504096;28;20497;-53
2020/12/07 07:29:10;;;;;;;25.80;10.57;;;;;;;1.73;46.99;101725.22;10503222;28;20102;-51
2020/12/07 07:34:12;;;;;;;31.50;11.82;;;;;;;3.22;45.45;101718.84;10502976;28;20086;-52
2020/12/07 07:39:14;;;;;;;23.38;9.63;;;;;;;4.46;43.45;101714.88;10503910;28;20059;-55
2020/12/07 07:44:17;;;;;;;31.10;11.23;;;;;;;5.37;41.26;101712.22;10502290;28;20056;-55
2020/12/07 07:49:29;;;;;;;28.50;10.93;;;;;;;6.05;38.72;101703.06;10502381;28;20151;-50
2020/12/07 08:16:21;;;;;;;27.58;11.55;;;;;;;0.15;38.77;101684.16;10459521;28;20080;-51
2020/12/07 08:21:28;;;;;;;21.27;10.70;;;;;;;-0.17;39.17;101674.13;10460939;28;20102;-50
2020/12/07 08:26:30;;;;;;;25.58;10.98;;;;;;;-0.60;39.73;101666.75;10460053;28;20064;-50
2020/12/07 08:31:36;;;;;;;21.00;9.10;;;;;;;-1.05;39.70;101673.06;10464430;28;20048;-54
2020/12/07 08:36:38;;;;;;;29.90;11.40;;;;;;;-1.19;40.25;101670.59;10501066;28;20396;-53
2020/12/07 08:41:39;;;;;;;20.63;9.65;;;;;;;-1.41;40.14;101673.28;10499607;28;20040;-49
2020/12/07 08:46:43;;;;;;;23.98;8.57;;;;;;;-1.55;40.48;101671.59;10500529;28;20059;-52
2020/12/07 08:51:45;;;;;;;17.65;8.63;;;;;;;-1.59;41.12;101668.19;10500630;28;20469;-49
2020/12/07 08:56:48;;;;;;;25.15;10.32;;;;;;;0.29;41.46;101665.91;10498071;28;20108;-50
2020/12/07 09:01:51;;;;;;;27.38;12.35;;;;;;;3.30;39.66;101661.50;10500153;28;20044;-51
2020/12/07 09:06:53;;;;;;;23.20;10.38;;;;;;;5.89;37.15;101656.56;10499421;28;20063;-51
2020/12/07 09:11:55;;;;;;;22.83;9.70;;;;;;;7.30;35.05;101656.56;10496871;28;20048;-52
2020/12/07 09:16:58;;;;;;;25.90;11.48;;;;;;;8.06;32.48;101646.38;10498964;28;20189;-54
2020/12/07 09:22:00;;;;;;;19.45;10.20;;;;;;;8.13;31.44;101652.19;10499461;28;20094;-52
2020/12/07 09:27:01;;;;;;;24.75;9.80;;;;;;;8.69;31.39;101647.06;10499602;28;20125;-52
2020/12/07 09:32:04;;;;;;;23.70;11.38;;;;;;;8.87;29.68;101640.13;10498875;28;20048;-54
2020/12/07 09:37:05;;;;;;;23.85;11.73;;;;;;;9.23;29.35;101636.63;10500613;28;20044;-54
2020/12/07 09:42:07;;;;;;;25.02;12.43;;;;;;;9.29;29.40;101635.47;10499467;28;20067;-52
2020/12/07 09:47:10;;;;;;;21.02;10.65;;;;;;;8.58;29.06;101640.59;10498150;28;20044;-53
2020/12/07 09:52:11;;;;;;;25.17;12.13;;;;;;;6.52;29.92;101629.97;10498084;28;20045;-51
2020/12/07 09:57:13;;;;;;;20.80;9.88;;;;;;;4.47;30.75;101642.84;10497393;28;20064;-53
2020/12/07 10:02:16;;;;;;;21.17;10.82;;;;;;;3.00;32.45;101647.47;10498572;28;20044;-53
2020/12/07 10:07:17;;;;;;;22.02;11.77;;;;;;;2.14;33.21;101643.22;10497192;28;20041;-54
2020/12/07 10:12:19;;;;;;;23.75;11.38;;;;;;;1.60;33.92;101642.47;10494101;28;20225;-52
2020/12/07 10:17:22;;;;;;;24.63;12.07;;;;;;;0.95;34.06;101648.66;10494809;28;20048;-52
2020/12/07 10:22:23;;;;;;;21.98;10.82;;;;;;;0.52;35.05;101651.84;10495868;28;20401;-53
2020/12/07 10:27:25;;;;;;;24.02;10.65;;;;;;;0.14;35.57;101650.56;10497401;28;20059;-52
2020/12/07 10:32:27;;;;;;;20.20;9.45;;;;;;;-0.21;35.88;101645.75;10500201;28;20041;-52
2020/12/07 10:37:29;;;;;;;20.52;9.48;;;;;;;-0.41;36.06;101636.44;10499061;28;20385;-53
2020/12/07 10:42:31;;;;;;;30.02;8.88;;;;;;;-0.53;36.22;101636.56;10503370;28;20431;-52
2020/12/07 10:47:33;;;;;;;25.10;10.48;;;;;;;-0.67;36.76;101626.34;10505282;28;20052;-51
2020/12/07 10:52:35;;;;;;;23.27;7.63;;;;;;;-0.83;37.01;101630.78;10504703;28;20045;-52
2020/12/07 10:57:37;;;;;;;21.80;9.95;;;;;;;-0.98;37.49;101631.75;10504118;28;20117;-52
2020/12/07 11:02:40;;;;;;;27.30;8.85;;;;;;;-1.15;37.94;101630.97;10504959;28;20054;-53
2020/12/07 11:07:44;;;;;;;25.67;9.55;;;;;;;-1.20;38.42;101627.56;10502391;28;20052;-53
2020/12/07 11:12:54;;;;;;;18.15;8.00;;;;;;;-1.21;38.66;101623.28;10500576;28;20040;-51
2020/12/07 11:17:57;;;;;;;22.15;9.13;;;;;;;-1.21;38.62;101626.72;10507145;28;20102;-55
2020/12/07 11:22:59;;;;;;;24.27;10.52;;;;;;;-1.20;38.85;101622.41;10505497;28;20087;-54
2020/12/07 11:28:00;;;;;;;29.17;9.60;;;;;;;-1.20;38.86;101619.81;10503546;28;20048;-51
2020/12/07 11:33:03;;;;;;;25.42;8.32;;;;;;;-1.25;38.98;101622.44;10503610;28;20055;-52
2020/12/07 11:38:09;;;;;;;24.20;10.90;;;;;;;-1.28;39.12;101630.19;10503651;28;20448;-54
2020/12/07 11:43:17;;;;;;;19.85;9.40;;;;;;;-1.30;39.13;101620.75;10502741;28;20078;-52
2020/12/07 11:48:20;;;;;;;19.25;9.80;;;;;;;-1.30;39.45;101637.09;10503041;28;20114;-51
2020/12/07 11:53:21;;;;;;;16.93;9.23;;;;;;;-1.36;39.20;101639.69;10501947;28;20131;-52
2020/12/07 11:58:23;;;;;;;24.73;9.98;;;;;;;-1.43;39.57;101636.28;10502142;28;20291;-52
2020/12/07 12:03:26;;;;;;;22.98;10.68;;;;;;;-1.47;39.67;101629.44;10502540;28;20048;-53
2020/12/07 12:08:27;;;;;;;23.65;10.75;;;;;;;-1.35;39.56;101632.84;10488050;28;20121;-55
2020/12/07 12:13:29;;;;;;;25.98;9.77;;;;;;;-1.30;39.31;101631.06;10500221;28;20052;-52
2020/12/07 12:18:32;;;;;;;23.95;10.80;;;;;;;-1.38;39.62;101630.28;10501820;28;20139;-55
2020/12/07 12:23:34;;;;;;;26.85;10.75;;;;;;;-1.45;39.67;101627.72;10501219;28;20049;-53
2020/12/07 12:28:35;;;;;;;26.52;11.68;;;;;;;-1.47;39.67;101624.28;10500669;28;20059;-52
2020/12/07 12:33:38;;;;;;;24.42;11.57;;;;;;;-1.47;39.54;101634.59;10501983;28;20114;-51
2020/12/07 12:38:40;;;;;;;19.95;10.70;;;;;;;-1.50;39.67;101639.78;10502757;28;20500;-52
2020/12/07 12:43:41;;;;;;;32.13;13.40;;;;;;;-1.57;39.44;101632.94;10500552;28;20044;-53
2020/12/07 12:48:44;;;;;;;24.10;11.88;;;;;;;-1.63;39.84;101635.53;10501535;28;20399;-52
2020/12/07 12:53:46;;;;;;;27.00;11.73;;;;;;;-1.71;40.17;101643.28;10502527;28;20056;-51
2020/12/07 12:58:47;;;;;;;37.13;14.70;;;;;;;-1.79;40.06;101644.16;10500088;28;20044;-52
2020/12/07 13:03:50;;;;;;;34.17;14.65;;;;;;;-1.87;40.28;101647.66;10499250;28;20075;-51
2020/12/07 13:08:54;;;;;;;34.90;14.90;;;;;;;-1.95;40.48;101645.94;10498022;28;20048;-51
2020/12/07 13:13:55;;;;;;;29.80;13.00;;;;;;;-2.07;40.45;101631.34;10497227;28;20052;-54
2020/12/07 13:18:58;;;;;;;37.22;14.10;;;;;;;-2.17;40.63;101638.25;10500116;28;20051;-52
2020/12/07 13:24:03;;;;;;;34.67;13.93;;;;;;;-2.25;40.71;101633.97;10498919;28;20071;-51
2020/12/07 13:29:05;;;;;;;30.88;12.60;;;;;;;-2.34;41.11;101637.41;10499910;28;20298;-51
2020/12/07 13:34:08;;;;;;;26.45;12.35;;;;;;;-2.40;41.01;101643.47;10499558;28;20076;-51
2020/12/07 13:39:10;;;;;;;29.63;13.90;;;;;;;-2.51;41.17;101634.88;10500011;28;20063;-51
2020/12/07 13:44:11;;;;;;;29.25;13.45;;;;;;;-2.58;41.19;101631.44;10499813;28;20072;-51
2020/12/07 13:49:14;;;;;;;26.00;10.10;;;;;;;-2.65;41.44;101644.28;10499708;28;20066;-54
2020/12/07 13:54:16;;;;;;;20.47;9.70;;;;;;;-2.79;41.77;101636.59;10497793;28;20137;-52
2020/12/07 13:59:18;;;;;;;25.27;10.70;;;;;;;-2.82;41.71;101628.88;10498086;28;20048;-51
2020/12/07 14:04:31;;;;;;;47.72;12.60;;;;;;;-2.85;41.68;101627.13;10499618;28;20416;-52
2020/12/07 14:09:33;;;;;;;19.17;8.63;;;;;;;-2.87;41.69;101626.28;10495490;28;20044;-52
2020/12/07 14:14:34;;;;;;;26.02;11.25;;;;;;;-2.90;41.71;101630.56;10495890;28;20048;-51
2020/12/07 14:19:47;;;;;;;27.58;12.45;;;;;;;-2.98;41.60;101628.00;10498157;28;20056;-53
2020/12/07 14:25:12;;;;;;;29.80;11.75;;;;;;;-3.01;42.12;101635.72;10498785;28;20375;-53
2020/12/07 14:40:51;;;;;;;27.58;11.50;;;;;;;-3.17;42.43;101628.78;10496683;28;20054;-53
2020/12/07 14:45:55;;;;;;;28.55;12.60;;;;;;;-3.15;42.44;101634.81;10498174;28;20048;-51
2020/12/07 14:51:05;;;;;;;23.65;11.32;;;;;;;-3.17;42.34;101636.50;10497515;28;20147;-51
2020/12/07 14:56:12;;;;;;;23.92;11.45;;;;;;;-3.16;42.37;101643.41;10497140;28;20484;-51
2020/12/07 15:01:34;;;;;;;28.58;11.70;;;;;;;-3.22;42.80;101649.38;10497491;28;20045;-53
2020/12/07 15:06:41;;;;;;;32.33;12.27;;;;;;;-3.29;42.65;101648.50;10496948;28;20048;-52
2020/12/07 15:12:03;;;;;;;34.70;13.13;;;;;;;-3.32;42.88;101651.06;10492695;28;20490;-53
2020/12/07 15:17:05;;;;;;;21.48;10.57;;;;;;;-3.32;42.85;101652.78;10497514;28;20044;-51
2020/12/07 15:22:08;;;;;;;25.50;9.82;;;;;;;-3.33;42.98;101651.91;10497041;28;20048;-52
2020/12/07 15:27:10;;;;;;;;;;;;;;;-3.38;43.23;101651.06;10499710;28;20105;-51
2020/12/07 15:32:12;;;;;;;22.20;10.18;;;;;;;-3.43;43.36;101645.03;10504706;28;19925;-52
2020/12/07 15:37:14;;;;;;;32.60;12.13;;;;;;;-3.49;43.77;101640.72;10504035;28;20400;-53
2020/12/07 15:42:16;;;;;;;25.23;11.30;;;;;;;-3.50;43.94;101648.44;10503101;28;20307;-52
2020/12/07 15:47:17;;;;;;;22.50;8.30;;;;;;;-3.51;44.16;101650.16;10505494;28;20091;-52
2020/12/07 15:52:20;;;;;;;24.58;10.45;;;;;;;-3.50;44.17;101651.84;10503615;28;20131;-52
2020/12/07 15:57:22;;;;;;;17.15;6.82;;;;;;;-3.58;44.13;101644.97;10502841;28;20057;-52
2020/12/07 16:02:24;;;;;;;19.33;8.45;;;;;;;-3.60;44.57;101646.66;10505400;28;20401;-53
2020/12/07 16:07:27;;;;;;;27.35;9.63;;;;;;;-3.57;44.49;101652.69;10502643;28;20143;-51
2020/12/07 16:12:28;;;;;;;21.83;8.40;;;;;;;-3.57;44.80;101638.97;10499155;28;20044;-53
2020/12/07 16:17:30;;;;;;;25.65;9.70;;;;;;;-3.58;44.66;101644.97;10502335;28;20070;-52
2020/12/07 16:22:33;;;;;;;25.88;10.05;;;;;;;-3.62;44.56;101643.25;10501564;28;20051;-51
2020/12/07 16:27:36;;;;;;;24.80;10.73;;;;;;;-3.73;45.21;101635.47;10501165;28;20056;-53
2020/12/07 16:32:37;;;;;;;24.83;10.30;;;;;;;-3.78;45.08;101643.19;10501246;28;20044;-53
2020/12/07 16:37:40;;;;;;;26.13;9.32;;;;;;;-3.79;45.16;101641.44;10501452;28;20059;-51
2020/12/07 16:42:42;;;;;;;21.70;10.05;;;;;;;-3.82;44.96;101638.84;10502296;28;20044;-51
2020/12/07 16:47:43;;;;;;;22.88;10.18;;;;;;;-3.82;45.40;101633.72;10501987;28;20052;-53
2020/12/07 16:52:46;;;;;;;21.58;8.88;;;;;;;-3.86;45.67;101629.41;10500588;28;20048;-51
2020/12/07 16:57:48;;;;;;;23.08;7.50;;;;;;;-3.89;45.92;101628.56;10500128;28;20056;-52
2020/12/07 17:02:49;;;;;;;18.35;8.88;;;;;;;-3.89;45.55;101628.56;10502229;28;20070;-51
2020/12/07 17:07:52;;;;;;;28.23;11.32;;;;;;;-3.87;45.43;101627.72;10500412;28;20056;-51
2020/12/07 17:12:54;;;;;;;28.63;7.25;;;;;;;-3.87;45.53;101620.00;10496001;28;20044;-51
2020/12/07 17:17:55;;;;;;;27.52;11.88;;;;;;;-3.84;45.50;101621.75;10500197;28;20151;-51
2020/12/07 17:22:58;;;;;;;25.30;12.25;;;;;;;-3.84;45.39;101620.03;10498729;28;20048;-52
2020/12/07 17:28:00;;;;;;;28.67;12.10;;;;;;;-3.85;45.26;101620.00;10499099;28;20052;-53
2020/12/07 17:33:01;;;;;;;26.42;11.38;;;;;;;-3.85;45.52;101618.28;10498299;28;20044;-52
2020/12/07 17:38:04;;;;;;;26.05;10.43;;;;;;;-3.90;45.38;101622.56;10497863;28;20472;-51
2020/12/07 17:43:06;;;;;;;28.50;13.37;;;;;;;-3.92;45.46;101613.97;10499107;28;20477;-51
2020/12/07 17:48:07;;;;;;;30.70;11.98;;;;;;;-3.94;45.75;101605.41;10497860;28;20048;-51
2020/12/07 17:53:10;;;;;;;26.42;11.13;;;;;;;-3.94;45.78;101600.28;10497438;28;20037;-52
2020/12/07 17:58:12;;;;;;;25.13;11.00;;;;;;;-3.96;45.51;101596.84;10500283;28;20044;-57
2020/12/07 18:03:16;;;;;;;26.27;10.93;;;;;;;-3.95;45.78;101593.41;10500670;28;20059;-52
2020/12/07 18:08:20;;;;;;;25.73;10.77;;;;;;;-3.92;45.73;101592.56;10496366;28;20048;-53
2020/12/07 18:13:24;;;;;;;26.52;10.00;;;;;;;-3.92;45.67;101592.56;10495697;28;20044;-52
2020/12/07 18:18:25;;;;;;;;;;;;;;;-4.01;46.04;101593.38;10498263;28;20064;-55
2020/12/07 18:23:28;;;;;;;20.98;7.47;;;;;;;-4.05;45.77;101594.22;10497936;28;19960;-53
2020/12/07 18:28:29;;;;;;;24.20;8.00;;;;;;;-4.10;46.13;101588.19;10497751;28;20058;-52
2020/12/07 18:33:31;;;;;;;28.85;10.60;;;;;;;-4.16;46.19;101594.16;10497720;28;20045;-53
2020/12/07 18:38:34;;;;;;;34.50;12.55;;;;;;;-4.22;46.41;101579.59;10497043;28;20052;-53
2020/12/07 18:43:38;;;;;;;24.47;11.87;;;;;;;-4.23;46.28;101583.00;10501067;28;20063;-51
2020/12/07 18:48:40;;;;;;;26.73;10.43;;;;;;;-4.22;46.34;101579.59;10503530;28;20398;-52
2020/12/07 18:53:43;;;;;;;15.38;6.57;;;;;;;-4.22;46.40;101569.31;10504871;28;20469;-52
2020/12/07 18:58:45;;;;;;;23.20;9.82;;;;;;;-4.26;46.45;101559.88;10499762;28;20055;-51
2020/12/07 19:03:47;;;;;;;26.20;10.52;;;;;;;-4.31;46.69;101556.44;10504869;28;20094;-53
2020/12/07 19:08:49;;;;;;;28.92;10.27;;;;;;;-4.37;46.86;101552.94;10503051;28;20052;-51
2020/12/07 19:13:53;;;;;;;27.40;10.53;;;;;;;-4.40;46.96;101546.97;10502403;28;20051;-51
2020/12/07 19:18:54;;;;;;;;;;;;;;;-4.42;47.03;101547.81;10505518;28;20048;-51
2020/12/07 19:23:57;;;;;;;23.23;9.30;;;;;;;-4.48;47.10;101546.06;10503702;28;19935;-52
2020/12/07 19:28:59;;;;;;;23.13;8.30;;;;;;;-4.55;47.19;101549.44;10504207;28;20052;-52
2020/12/07 19:34:01;;;;;;;19.77;8.48;;;;;;;-4.59;47.44;101550.25;10504186;28;20106;-51
2020/12/07 19:39:04;;;;;;;22.40;8.73;;;;;;;-4.67;47.78;101557.06;10503402;28;20072;-52
2020/12/07 19:44:06;;;;;;;24.77;9.65;;;;;;;-4.65;47.63;101569.06;10503138;28;20055;-51
2020/12/07 19:49:09;;;;;;;25.15;9.48;;;;;;;-4.64;47.49;101567.34;10503912;28;20052;-52
2020/12/07 19:54:13;;;;;;;19.50;8.55;;;;;;;-4.71;47.78;101563.88;10503666;28;20481;-51
2020/12/07 19:59:15;;;;;;;23.67;9.10;;;;;;;-4.75;47.91;101561.25;10504455;28;20053;-57
2020/12/07 20:04:18;;;;;;;24.95;11.60;;;;;;;-4.77;47.91;101566.41;10504145;28;20044;-51
2020/12/07 20:09:20;;;;;;;19.20;7.40;;;;;;;-4.82;48.00;101565.50;10503186;28;20049;-53
2020/12/07 20:14:22;;;;;;;12.88;7.05;;;;;;;-4.87;48.44;101567.16;10501285;28;20093;-51
2020/12/07 20:19:24;;;;;;;23.50;10.18;;;;;;;-4.90;48.49;101567.97;10504745;28;20158;-51
2020/12/07 20:24:26;;;;;;;19.70;9.10;;;;;;;-4.86;48.39;101569.75;10503526;28;20040;-53
2020/12/07 20:29:28;;;;;;;18.07;8.53;;;;;;;-4.90;48.67;101564.56;10503707;28;20389;-54
2020/12/07 20:34:30;;;;;;;19.70;8.85;;;;;;;-4.93;48.81;101567.09;10501158;28;20068;-51
2020/12/07 20:39:33;;;;;;;16.90;6.57;;;;;;;-4.95;49.07;101576.50;10502134;28;20147;-52
2020/12/07 20:44:34;;;;;;;25.97;10.10;;;;;;;-4.98;49.03;101564.53;10504244;28;20052;-52
2020/12/07 20:49:36;;;;;;;23.60;8.80;;;;;;;-5.02;49.22;101574.72;10501846;28;20067;-57
2020/12/07 20:54:39;;;;;;;21.38;8.55;;;;;;;-4.98;49.31;101571.34;10501776;28;20449;-51
2020/12/07 20:59:41;;;;;;;26.30;9.32;;;;;;;-5.01;49.55;101569.63;10501231;28;20063;-51
2020/12/07 21:04:42;;;;;;;24.83;10.10;;;;;;;-4.94;49.29;101575.66;10499557;28;20051;-53
2020/12/07 21:09:45;;;;;;;23.00;10.57;;;;;;;-4.96;48.98;101567.94;10498171;28;20079;-59
2020/12/07 21:14:46;;;;;;;16.35;6.75;;;;;;;-4.94;49.37;101571.38;10498867;28;20045;-52
2020/12/07 21:19:48;;;;;;;23.25;8.40;;;;;;;-5.04;49.65;101568.75;10499289;28;20075;-53
2020/12/07 21:24:51;;;;;;;21.48;8.43;;;;;;;-5.04;49.59;101568.75;10500165;28;20052;-55
2020/12/07 21:29:52;;;;;;;23.43;9.33;;;;;;;-5.03;49.46;101563.59;10497852;28;20053;-55
2020/12/07 21:34:54;;;;;;;23.77;9.65;;;;;;;-5.03;49.28;101568.75;10498405;28;20377;-51
2020/12/07 21:39:56;;;;;;;20.85;6.72;;;;;;;-5.03;49.37;101567.88;10498800;28;20053;-51
2020/12/07 21:44:58;;;;;;;22.38;9.35;;;;;;;-5.10;49.83;101557.56;10499451;28;20109;-60
2020/12/07 21:50:00;;;;;;;26.23;9.82;;;;;;;-5.14;49.85;101552.38;10500872;28;20063;-51
2020/12/07 21:55:03;;;;;;;26.08;10.05;;;;;;;-5.12;49.77;101548.16;10500481;28;20058;-54
2020/12/07 22:00:05;;;;;;;15.15;6.35;;;;;;;-5.07;49.88;101549.06;10502992;28;20455;-52
2020/12/07 22:05:11;;;;;;;23.23;8.27;;;;;;;-5.13;50.16;101559.25;10498446;28;20070;-51
2020/12/07 22:10:15;;;;;;;18.52;7.57;;;;;;;-5.15;50.07;101556.66;10497487;28;20499;-51
2020/12/07 22:15:17;;;;;;;30.83;9.38;;;;;;;-5.16;50.09;101552.38;10499127;28;20044;-51
2020/12/07 22:20:19;;;;;;;22.02;7.60;;;;;;;-5.16;50.24;101544.69;10498789;28;20072;-52
2020/12/07 22:25:21;;;;;;;12.82;4.10;;;;;;;-5.13;50.24;101554.97;10499782;28;20048;-53
2020/12/07 22:30:25;;;;;;;17.07;6.47;;;;;;;-5.15;50.23;101548.97;10498738;28;20152;-53
2020/12/07 22:35:27;;;;;;;21.33;8.38;;;;;;;-5.21;50.44;101546.34;10500113;28;20079;-58
2020/12/07 22:40:29;;;;;;;16.85;7.00;;;;;;;-5.19;50.27;101544.66;10507602;28;20484;-51
2020/12/07 22:45:32;;;;;;;22.37;9.17;;;;;;;-5.17;50.11;101530.16;10506620;28;20061;-51
2020/12/07 22:50:33;;;;;;;20.27;8.38;;;;;;;-5.25;50.58;101534.34;10505802;28;20052;-52
2020/12/07 22:55:36;;;;;;;15.80;5.38;;;;;;;-5.29;50.47;101537.75;10506188;28;20053;-53
2020/12/07 23:00:38;;;;;;;12.37;5.63;;;;;;;-5.33;50.36;101541.13;10506519;28;20079;-54
2020/12/07 23:05:41;;;;;;;23.02;8.93;;;;;;;-5.24;50.25;101546.31;10506192;28;20131;-51
2020/12/07 23:10:43;;;;;;;23.10;8.98;;;;;;;-5.16;49.86;101538.72;10502550;28;20077;-53
2020/12/07 23:15:45;;;;;;;25.03;9.57;;;;;;;-5.15;50.15;101541.28;10504528;28;20140;-54
2020/12/07 23:20:47;;;;;;;17.05;8.38;;;;;;;-5.14;49.94;101530.19;10506064;28;20139;-51
2020/12/07 23:25:50;;;;;;;25.63;9.57;;;;;;;-5.09;49.69;101531.06;10507667;28;20072;-52
2020/12/07 23:30:52;;;;;;;21.00;8.80;;;;;;;-5.07;49.67;101537.94;10506128;28;20079;-52